Latest Weather Observations for Yarrawonga

IDV60801

Issued at 9:31 pm EDT Monday 22 December 2014 (issued every 30 minutes, with the page automatically refreshed every 10 minutes)

About weather observations | Map of weather stations | Latest weather observations for VIC | Other Formats
Station Details ID: 081124 Name: YARRAWONGA Lat: -36.03 Lon: 146.03 Height: 128.9 m
Data from the previous 72 hours. | See also: Recent months at Yarrawonga
Date/Time
EDT
Temp
°C
App
Temp
°C
Dew
Point
Rel
Hum
%
Delta-T
°C
Wind Press
QNH
hPa
Press
MSL
hPa
Rain
since 9 am
mm
Dir
 
Spd
km/h
Gust
km/h
Spd
kts
Gust
kts
22/09:30pm 23.9 21.6 14.6 56 5.6 E 20 32 11 17 1008.3 1007.8 0.0
22/09:00pm 24.2 19.9 14.3 54 5.9 E 30 39 16 21 1008.3 1007.8 0.0
22/08:30pm 24.5 22.1 14.3 53 6.1 E 20 30 11 16 1008.8 1008.3 0.0
22/08:00pm 24.1 22.2 15.1 57 5.4 E 19 26 10 14 1008.6 1008.1 0.0
22/07:30pm 24.9 21.2 13.8 50 6.6 E 26 35 14 19 1008.3 1007.8 0.0
22/07:00pm 24.7 22.2 15.1 55 5.8 E 22 35 12 19 1007.9 1007.4 0.0
22/06:30pm 25.0 21.3 15.0 53 6.0 E 28 39 15 21 1007.8 1007.3 0.0
22/06:00pm 25.9 22.9 14.7 50 6.8 E 24 37 13 20 1007.9 1007.4 0.0
22/05:30pm 26.6 24.4 15.9 51 6.6 ENE 22 32 12 17 1008.9 1008.4 0.0
22/05:00pm 25.6 26.3 16.2 56 5.8 SE 7 15 4 8 1008.0 1007.5 0.0
22/04:30pm 24.5 22.5 16.5 61 4.9 SSW 22 30 12 16 1007.8 1007.3 0.0
22/04:09pm 24.3 20.5 16.6 62 4.7 W 32 44 17 24 1008.9 1008.4 0.0
22/04:00pm 29.7 26.6 11.7 33 10.5 SW 19 43 10 23 1009.0 1008.5 0.0
22/03:30pm 34.6 31.0 6.8 18 15.4 S 15 24 8 13 1007.7 1007.2 0.0
22/03:00pm 33.7 31.5 10.9 25 13.4 NNE 13 19 7 10 1008.1 1007.6 0.0
22/02:30pm 35.1 31.8 9.5 21 14.8 NNW 17 24 9 13 1008.4 1007.9 0.0
22/02:00pm 34.4 32.6 9.6 22 14.3 N 9 15 5 8 1008.7 1008.2 0.0
22/01:30pm 34.8 33.7 7.0 18 15.4 NNE 2 7 1 4 1009.1 1008.6 0.0
22/01:00pm 35.3 32.2 5.7 16 16.1 N 11 17 6 9 1009.7 1009.2 0.0
22/12:30pm 35.0 32.4 6.3 17 15.8 NE 9 17 5 9 1010.2 1009.7 0.0
22/12:00pm 35.4 32.7 7.5 18 15.7 NE 11 20 6 11 1010.7 1010.2 0.0
22/11:30am 34.1 30.8 9.4 22 14.2 E 17 28 9 15 1011.2 1010.7 0.0
22/11:00am 33.8 31.3 11.0 25 13.4 NE 15 22 8 12 1011.4 1010.9 0.0
22/10:30am 32.0 29.0 10.7 27 12.4 ENE 17 24 9 13 1011.7 1011.2 0.0
22/10:00am 30.6 27.8 11.5 30 11.2 NE 17 24 9 13 1012.0 1011.5 0.0
22/09:30am 28.2 25.8 11.3 35 9.7 ENE 15 22 8 12 1012.4 1012.0 0.0
22/09:00am 27.6 23.8 11.2 36 9.4 ENE 22 28 12 15 1012.2 1011.8 0.0
22/08:30am 26.9 23.9 10.6 36 9.2 E 17 24 9 13 1012.1 1011.6 0.0
22/08:00am 24.8 23.0 10.7 41 7.9 E 11 17 6 9 1012.2 1011.8 0.0
22/07:30am 22.9 20.8 11.0 47 6.6 E 13 17 7 9 1012.0 1011.5 0.0
22/07:00am 21.0 19.3 11.1 53 5.5 ESE 11 15 6 8 1011.6 1011.1 0.0
22/06:30am 19.0 17.6 10.8 59 4.5 ESE 9 13 5 7 1011.4 1010.9 0.0
22/06:00am 18.0 17.0 10.9 63 3.9 E 7 11 4 6 1011.2 1010.7 0.0
22/05:30am 17.4 16.5 10.8 65 3.6 ESE 6 7 3 4 1010.9 1010.4 0.0
22/05:00am 17.4 16.3 10.5 64 3.7 E 7 7 4 4 1010.5 1010.0 0.0
22/04:30am 17.9 16.8 10.5 62 4.0 E 7 9 4 5 1010.6 1010.1 0.0
22/04:00am 17.7 16.6 10.1 61 4.1 E 6 6 3 3 1010.8 1010.3 0.0
22/03:30am 18.0 16.8 9.6 58 4.4 ESE 6 7 3 4 1010.7 1010.2 0.0
22/03:00am 18.0 16.1 9.1 56 4.7 ESE 9 11 5 6 1010.8 1010.3 0.0
22/02:30am 17.8 16.2 8.6 55 4.8 ESE 7 9 4 5 1011.0 1010.5 0.0
22/02:00am 17.8 16.7 8.4 54 4.9 ESE 4 6 2 3 1011.1 1010.6 0.0
22/01:30am 18.1 16.7 8.7 54 4.9 E 6 13 3 7 1011.3 1010.8 0.0
22/01:00am 18.4 17.8 8.9 54 5.0 SSE 2 4 1 2 1011.5 1011.0 0.0
22/12:30am 19.9 18.1 7.9 46 6.2 E 7 9 4 5 1011.8 1011.3 0.0
22/12:00am 20.1 18.5 7.8 45 6.4 ESE 6 11 3 6 1012.0 1011.5 0.0
 
Date/Time
EDT
Temp
°C
App
Temp
°C
Dew
Point
Rel
Hum
%
Delta-T
°C
Wind Press
QNH
hPa
Press
MSL
hPa
Rain
since 9 am
mm
Dir
 
Spd
km/h
Gust
km/h
Spd
kts
Gust
kts
21/11:30pm 20.3 18.5 7.3 43 6.7 SE 6 7 3 4 1012.1 1011.6 0.0
21/11:00pm 21.6 21.3 8.5 43 6.9 CALM 0 0 0 0 1012.3 1011.9 0.0
21/10:30pm 22.9 22.1 8.2 39 7.8 WSW 2 4 1 2 1012.2 1011.8 0.0
21/10:00pm 24.0 23.0 8.8 38 8.2 SW 4 6 2 3 1012.2 1011.8 0.0
21/09:30pm 25.5 23.8 7.6 32 9.5 SW 6 6 3 3 1012.1 1011.6 0.0
21/09:00pm 25.9 24.6 7.5 31 9.8 SW 4 6 2 3 1011.8 1011.3 0.0
21/08:30pm 28.0 26.2 7.3 27 11.1 WSW 6 6 3 3 1011.5 1011.0 0.0
21/08:00pm 29.5 27.3 6.2 23 12.4 WSW 7 9 4 5 1011.4 1010.9 0.0
21/07:30pm 31.4 29.3 6.5 21 13.5 W 7 9 4 5 1011.2 1010.7 0.0
21/07:00pm 32.5 29.7 5.1 18 14.6 WSW 9 13 5 7 1011.1 1010.6 0.0
21/06:30pm 32.8 30.4 5.4 18 14.7 W 7 11 4 6 1010.9 1010.4 0.0
21/06:00pm 33.6 30.8 5.2 17 15.2 SSW 9 20 5 11 1010.8 1010.3 0.0
21/05:30pm 33.0 30.5 4.7 17 15.0 WNW 7 17 4 9 1011.1 1010.6 0.0
21/05:00pm 33.7 31.3 4.4 16 15.5 N 6 15 3 8 1011.4 1010.9 0.0
21/04:30pm 34.1 31.0 3.8 15 15.9 WNW 9 17 5 9 1011.6 1011.1 0.0
21/04:00pm 34.0 29.6 2.8 14 16.1 W 15 24 8 13 1011.8 1011.3 0.0
21/03:30pm 32.7 29.9 5.3 18 14.6 NNE 9 19 5 10 1012.0 1011.5 0.0
21/03:00pm 33.2 29.8 5.7 18 14.8 NW 13 26 7 14 1012.6 1012.2 0.0
21/02:30pm 33.7 29.8 6.9 19 14.8 W 17 26 9 14 1013.0 1012.6 0.0
21/02:00pm 32.8 30.3 8.3 22 13.7 NNW 11 20 6 11 1013.3 1012.9 0.0
21/01:30pm 32.1 30.0 8.4 23 13.3 NNW 9 33 5 18 1013.7 1013.3 0.0
21/01:00pm 31.6 30.1 8.6 24 12.9 WSW 6 13 3 7 1014.1 1013.7 0.0
21/12:30pm 30.8 28.8 8.5 25 12.4 NE 9 15 5 8 1014.5 1014.1 0.0
21/12:00pm 29.9 27.6 8.9 27 11.7 ENE 11 20 6 11 1014.6 1014.2 0.0
21/11:30am 30.5 29.0 10.5 29 11.5 NE 9 22 5 12 1014.7 1014.3 0.0
21/11:00am 29.1 27.9 10.3 31 10.7 NE 7 13 4 7 1015.2 1014.7 0.0
21/10:30am 27.6 26.2 10.8 35 9.6 NNE 9 13 5 7 1015.3 1014.8 0.0
21/10:00am 26.2 24.8 10.8 38 8.7 NNE 9 15 5 8 1015.6 1015.1 0.0
21/09:30am 25.5 23.7 10.9 40 8.2 NNE 11 17 6 9 1015.8 1015.3 0.0
21/09:00am 24.1 22.3 10.7 43 7.5 NE 11 17 6 9 1015.9 1015.4 0.0
21/08:30am 22.6 21.4 11.7 50 6.2 ENE 9 15 5 8 1015.8 1015.3 0.0
21/08:00am 22.2 21.0 11.6 51 6.0 E 9 13 5 7 1015.5 1015.0 0.0
21/07:30am 20.4 19.8 12.4 60 4.5 ESE 7 9 4 5 1015.3 1014.8 0.0
21/07:00am 18.8 17.5 12.5 67 3.5 ESE 11 15 6 8 1014.6 1014.2 0.0
21/06:30am 14.8 13.6 10.2 74 2.4 E 7 7 4 4 1014.4 1014.0 0.0
21/06:00am 13.7 12.3 9.4 75 2.2 E 7 9 4 5 1014.0 1013.6 0.0
21/05:30am 13.1 12.4 8.4 73 2.4 ENE 2 4 1 2 1013.7 1013.3 0.0
21/05:00am 13.1 12.8 8.8 75 2.2 CALM 0 2 0 1 1013.5 1013.1 0.0
21/04:30am 13.8 13.2 9.0 73 2.4 SSE 2 2 1 1 1013.4 1013.0 0.0
21/04:00am 14.8 14.2 9.0 68 3.0 SSE 2 4 1 2 1013.4 1013.0 0.0
21/03:30am 14.3 13.6 8.7 69 2.8 SSE 2 4 1 2 1013.6 1013.2 0.0
21/03:00am 15.0 14.1 9.1 68 3.0 SW 4 6 2 3 1013.8 1013.4 0.0
21/02:30am 16.4 14.5 9.1 62 3.8 WSW 9 9 5 5 1013.9 1013.5 0.0
21/02:00am 16.1 13.9 9.5 65 3.4 SW 11 11 6 6 1014.0 1013.6 0.0
21/01:30am 17.2 15.3 9.1 59 4.2 WSW 9 9 5 5 1014.2 1013.8 0.0
21/01:00am 17.7 16.2 9.1 57 4.5 SW 7 7 4 4 1014.5 1014.1 0.0
21/12:30am 18.0 16.6 8.8 55 4.8 SSW 6 7 3 4 1014.5 1014.1 0.0
21/12:00am 18.6 17.5 8.3 51 5.3 SSE 4 6 2 3 1014.7 1014.3 0.0
 
Date/Time
EDT
Temp
°C
App
Temp
°C
Dew
Point
Rel
Hum
%
Delta-T
°C
Wind Press
QNH
hPa
Press
MSL
hPa
Rain
since 9 am
mm
Dir
 
Spd
km/h
Gust
km/h
Spd
kts
Gust
kts
20/11:30pm 18.3 16.7 8.6 53 5.0 SSW 7 9 4 5 1014.6 1014.2 0.0
20/11:00pm 19.4 17.3 8.4 49 5.7 SSW 9 11 5 6 1014.5 1014.1 0.0
20/10:30pm 20.5 18.3 7.8 44 6.6 SW 9 11 5 6 1014.6 1014.2 0.0
20/10:00pm 22.3 19.6 7.3 38 7.8 SSW 11 13 6 7 1014.5 1014.1 0.0
20/09:30pm 23.3 20.7 7.8 37 8.2 SSW 11 17 6 9 1014.4 1014.0 0.0
20/09:00pm 23.7 21.2 8.2 37 8.3 SSW 11 15 6 8 1014.1 1013.7 0.0
20/08:30pm 25.2 22.7 8.2 34 9.1 SW 11 13 6 7 1013.7 1013.3 0.0
20/08:00pm 27.5 24.9 7.9 29 10.6 SW 11 15 6 8 1013.6 1013.2 0.0
20/07:30pm 28.8 25.5 7.9 27 11.4 SW 15 24 8 13 1013.4 1013.0 0.0
20/07:00pm 29.5 26.6 8.0 26 11.8 SW 13 22 7 12 1013.1 1012.7 0.0
20/06:30pm 30.0 26.3 7.8 25 12.2 SW 17 24 9 13 1013.0 1012.6 0.0
20/06:00pm 29.8 25.7 7.7 25 12.1 SW 19 30 10 16 1013.0 1012.6 0.0
20/05:30pm 30.1 26.6 7.3 24 12.4 SW 15 28 8 15 1013.0 1012.6 0.0
20/05:00pm 30.4 27.2 7.0 23 12.7 SSW 13 28 7 15 1013.2 1012.8 0.0
20/04:30pm 30.0 26.0 6.6 23 12.6 SW 17 26 9 14 1013.6 1013.2 0.0
20/04:00pm 30.4 27.2 7.0 23 12.7 WSW 13 37 7 20 1013.8 1013.4 0.0
20/03:30pm 29.5 26.3 6.8 24 12.2 WSW 13 26 7 14 1014.4 1014.0 0.0
20/03:00pm 28.6 25.4 6.7 25 11.7 W 13 20 7 11 1014.8 1014.4 0.0
20/02:30pm 28.3 25.8 6.4 25 11.6 SW 9 20 5 11 1015.4 1014.9 0.0
20/02:00pm 27.9 24.9 6.1 25 11.5 SW 11 24 6 13 1015.7 1015.2 0.0
20/01:30pm 27.3 25.0 5.6 25 11.3 SW 7 20 4 11 1016.1 1015.6 0.0
20/01:00pm 26.3 22.9 5.8 27 10.6 WSW 13 24 7 13 1016.5 1016.0 0.0
20/12:30pm 25.8 23.1 5.4 27 10.5 SW 9 17 5 9 1016.9 1016.4 0.0
20/12:00pm 24.4 21.6 5.2 29 9.7 SSW 9 19 5 10 1017.1 1016.6 0.0
20/11:30am 23.4 20.8 4.4 29 9.4 S 7 15 4 8 1017.5 1017.0 0.0
20/11:00am 22.1 19.8 4.7 32 8.6 N 6 9 3 5 1017.6 1017.1 0.0
20/10:30am 21.6 19.8 5.5 35 8.1 WNW 4 7 2 4 1017.7 1017.2 0.0
20/10:00am 20.6 18.3 5.0 36 7.7 SSE 6 9 3 5 1017.8 1017.3 0.0
20/09:30am 20.1 18.0 5.7 39 7.2 S 6 11 3 6 1018.0 1017.5 0.0
20/09:00am 18.9 16.7 6.1 43 6.4 S 7 13 4 7 1017.8 1017.3 0.0
20/08:30am 17.4 14.8 6.3 48 5.5 S 9 15 5 8 1017.5 1017.0 0.0
20/08:00am 15.9 12.6 6.3 53 4.7 S 13 17 7 9 1017.3 1016.8 0.0
20/07:30am 14.8 11.9 6.6 58 4.0 SSW 11 15 6 8 1017.2 1016.7 0.0
20/07:00am 12.7 10.7 7.0 68 2.8 WSW 7 9 4 5 1017.0 1016.5 0.0
20/06:30am 10.9 9.8 7.0 77 1.9 WSW 2 6 1 3 1016.7 1016.2 0.0
20/06:00am 9.7 7.7 6.2 79 1.6 SSW 6 7 3 4 1016.5 1016.0 0.0
20/05:30am 9.7 7.6 5.9 77 1.8 S 6 7 3 4 1016.3 1015.8 0.0
20/05:00am 11.0 8.4 6.2 72 2.3 SSW 9 13 5 7 1016.1 1015.6 0.0
20/04:30am 10.7 8.6 5.9 72 2.2 SW 6 7 3 4 1016.1 1015.6 0.0
20/04:00am 11.1 8.8 5.6 69 2.6 S 7 9 4 5 1016.2 1015.7 0.0
20/03:30am 12.0 9.0 5.9 66 2.9 SSW 11 15 6 8 1016.1 1015.6 0.0
20/03:00am 11.2 8.4 5.3 67 2.7 S 9 11 5 6 1016.3 1015.8 0.0
20/02:30am 11.8 9.6 5.2 64 3.1 SSW 6 9 3 5 1016.5 1016.0 0.0
20/02:00am 12.6 9.8 5.1 60 3.5 SSW 9 11 5 6 1016.8 1016.3 0.0
20/01:30am 13.7 10.5 5.1 56 4.0 SSW 11 13 6 7 1016.9 1016.4 0.0
20/01:00am 14.3 11.1 4.9 53 4.4 SSW 11 13 6 7 1017.0 1016.5 0.0
20/12:30am 15.2 11.2 4.9 50 4.9 S 15 20 8 11 1017.1 1016.6 0.0
20/12:00am 15.7 11.6 4.4 47 5.3 S 15 19 8 10 1017.2 1016.7 0.0
 
Date/Time
EDT
Temp
°C
App
Temp
°C
Dew
Point
Rel
Hum
%
Delta-T
°C
Wind Press
QNH
hPa
Press
MSL
hPa
Rain
since 9 am
mm
Dir
 
Spd
km/h
Gust
km/h
Spd
kts
Gust
kts
19/11:30pm 16.0 12.6 4.1 45 5.6 S 11 15 6 8 1017.3 1016.8 0.0
19/11:00pm 16.1 12.2 3.5 43 5.8 S 13 20 7 11 1017.4 1016.9 0.0
19/10:30pm 16.8 12.2 3.5 41 6.2 SSW 17 22 9 12 1017.1 1016.6 0.0
19/10:00pm 17.5 12.5 3.8 40 6.4 SSW 19 24 10 13 1017.0 1016.5 0.0

Other Formats:

Comma delimited format used in spreadsheet applications
http://www.bom.gov.au/fwo/IDV60801/IDV60801.94862.axf

JavaScript Object Notation format (JSON) in row-major order
http://www.bom.gov.au/fwo/IDV60801/IDV60801.94862.json